Terminal Aerodrome Forecast
Issued by NWS Cleveland, OH

Home | Current Version | Previous Version | Graphics & Text | Print | Product List | Glossary On
Versions: 1 2 3 4 5 6 7 8 9 10 11 12 13 14 15 16 17 18 19 20
846
FTUS41 KCLE 302140 AAA
TAFCAK
TAF AMD
KCAK 302140Z 3022/0118 19010KT 5SM BR VCSH SCT012 OVC030
      TEMPO 3022/3024 -RA BKN012
     FM010000 26010KT 5SM -SHRA OVC012
     FM010400 25014KT P6SM BKN015 OVC020=

USA.gov is the U.S. government's official web portal to all federal, state and local government web resources and services.